Time;durP1;ratioP1;P1;durP2;ratioP2;P2;SDS_P1;SDS_P2;PMS_P1;PMS_P2;Temp;Humidity;BMP_temperature;BMP_pressure;BME280_temperature;BME280_humidity;BME280_pressure;Samples;Min_cycle;Max_cycle;Signal;HPM_P1;HPM_P2
2023/10/27 00:01:55;;;;;;;;;;;18.30;94.40;;;;;;6067848;23;19914;-78
2023/10/27 00:04:21;;;;;;;;;;;18.20;94.40;;;;;;6067961;23;19973;-78
2023/10/27 00:06:46;;;;;;;;;;;18.30;94.40;;;;;;6068666;23;19925;-78
2023/10/27 00:09:12;;;;;;;;;;;18.50;94.60;;;;;;6068177;23;19957;-78
2023/10/27 00:11:37;;;;;;;;;;;18.20;94.20;;;;;;6068063;23;19925;-78
2023/10/27 00:14:03;;;;;;;;;;;18.30;94.50;;;;;;6068080;23;19988;-78
2023/10/27 00:16:29;;;;;;;;;;;18.30;94.30;;;;;;6068637;23;19988;-78
2023/10/27 00:18:54;;;;;;;;;;;18.20;94.60;;;;;;6068196;23;19937;-73
2023/10/27 00:21:20;;;;;;;;;;;18.30;94.40;;;;;;6068120;23;20509;-73
2023/10/27 00:23:45;;;;;;;;;;;18.20;94.30;;;;;;6067942;23;19981;-73
2023/10/27 00:26:11;;;;;;;;;;;18.30;94.50;;;;;;6068002;23;20322;-73
2023/10/27 00:28:36;;;;;;;;;;;18.30;94.40;;;;;;6068498;23;19902;-73
2023/10/27 00:31:02;;;;;;;;;;;18.50;94.50;;;;;;6067905;23;19909;-73
2023/10/27 00:33:27;;;;;;;;;;;18.30;94.20;;;;;;6067834;23;19909;-73
2023/10/27 00:35:53;;;;;;;;;;;18.30;94.50;;;;;;6067959;23;20008;-73
2023/10/27 00:38:19;;;;;;;;;;;18.20;94.50;;;;;;6067871;23;20250;-73
2023/10/27 00:40:45;;;;;;;;;;;18.30;94.40;;;;;;6068391;23;20207;-72
2023/10/27 00:43:15;;;;;;;;;;;18.30;94.60;;;;;;6067726;23;19908;-73
2023/10/27 00:45:40;;;;;;;;;;;18.30;94.60;;;;;;6068150;23;19985;-77
2023/10/27 00:48:06;;;;;;;;;;;18.30;94.60;;;;;;6067824;23;19933;-73
2023/10/27 00:50:32;;;;;;;;;;;18.20;94.50;;;;;;6067786;23;19906;-73
2023/10/27 00:52:57;;;;;;;;;;;18.30;94.40;;;;;;6067936;23;20358;-73
2023/10/27 00:55:23;;;;;;;;;;;18.20;94.30;;;;;;6067587;23;19966;-73
2023/10/27 00:57:49;;;;;;;;;;;18.30;94.50;;;;;;6068083;23;19901;-73
2023/10/27 01:00:15;;;;;;;;;;;18.30;94.50;;;;;;6068312;23;19905;-73
2023/10/27 01:02:41;;;;;;;;;;;18.20;94.30;;;;;;6067983;23;19913;-73
2023/10/27 01:05:08;;;;;;;;;;;18.30;94.50;;;;;;6068151;23;19925;-73
2023/10/27 01:07:35;;;;;;;;;;;18.30;94.20;;;;;;6067882;23;19938;-73
2023/10/27 01:10:02;;;;;;;;;;;18.50;94.50;;;;;;6068155;23;19902;-73
2023/10/27 01:12:28;;;;;;;;;;;18.30;94.40;;;;;;6068179;23;19901;-73
2023/10/27 01:14:53;;;;;;;;;;;18.30;94.50;;;;;;6068054;23;20303;-73
2023/10/27 01:17:19;;;;;;;;;;;18.30;94.50;;;;;;6068228;23;20213;-73
2023/10/27 01:19:45;;;;;;;;;;;18.30;94.50;;;;;;6068071;23;20389;-73
2023/10/27 01:22:14;;;;;;;;;;;18.30;94.50;;;;;;6067559;23;19905;-73
2023/10/27 01:24:40;;;;;;;;;;;18.20;94.40;;;;;;6067596;23;19925;-73
2023/10/27 01:27:06;;;;;;;;;;;18.20;94.50;;;;;;6042313;23;19901;-74
2023/10/27 01:29:32;;;;;;;;;;;18.20;94.40;;;;;;6067562;23;19949;-74
2023/10/27 01:31:57;;;;;;;;;;;18.10;94.20;;;;;;6068682;23;19901;-73
2023/10/27 01:34:23;;;;;;;;;;;18.30;94.50;;;;;;6067545;23;19917;-73
2023/10/27 01:36:48;;;;;;;;;;;18.20;94.40;;;;;;6067486;23;19920;-73
2023/10/27 01:39:14;;;;;;;;;;;18.30;94.60;;;;;;6067539;23;20340;-73
2023/10/27 01:41:39;;;;;;;;;;;18.20;94.40;;;;;;6067596;23;19908;-73
2023/10/27 01:44:05;;;;;;;;;;;18.10;94.30;;;;;;6067540;23;19910;-73
2023/10/27 01:46:30;;;;;;;;;;;18.30;94.40;;;;;;6068188;23;19949;-73
2023/10/27 01:48:56;;;;;;;;;;;18.30;94.40;;;;;;6068076;23;19926;-73
2023/10/27 01:51:22;;;;;;;;;;;18.30;94.50;;;;;;6068052;23;19908;-73
2023/10/27 01:53:48;;;;;;;;;;;18.20;94.60;;;;;;6067892;23;19902;-73
2023/10/27 01:56:14;;;;;;;;;;;18.20;94.50;;;;;;6068054;23;19902;-73
2023/10/27 01:58:44;;;;;;;;;;;18.20;94.50;;;;;;6067958;23;19972;-73
2023/10/27 02:01:10;;;;;;;;;;;18.20;94.40;;;;;;6067810;23;19908;-73
2023/10/27 02:03:36;;;;;;;;;;;18.20;94.70;;;;;;6067555;23;19918;-73
2023/10/27 02:06:02;;;;;;;;;;;18.20;94.40;;;;;;6067940;23;19909;-73
2023/10/27 02:08:28;;;;;;;;;;;18.30;94.30;;;;;;6067901;23;19901;-73
2023/10/27 02:10:54;;;;;;;;;;;18.20;94.60;;;;;;6067639;23;20241;-73
2023/10/27 02:13:19;;;;;;;;;;;18.20;94.40;;;;;;6067789;23;19908;-73
2023/10/27 02:15:45;;;;;;;;;;;18.20;94.60;;;;;;6067254;23;19992;-73
2023/10/27 02:18:10;;;;;;;;;;;18.20;94.50;;;;;;6068490;23;20238;-73
2023/10/27 02:20:36;;;;;;;;;;;18.20;94.50;;;;;;6069215;23;19901;-73
2023/10/27 02:23:01;;;;;;;;;;;18.20;94.50;;;;;;6069639;23;20306;-73
2023/10/27 02:25:27;;;;;;;;;;;18.30;94.50;;;;;;6069584;23;19909;-73
2023/10/27 02:27:53;;;;;;;;;;;18.20;94.50;;;;;;6068999;23;20009;-73
2023/10/27 02:30:18;;;;;;;;;;;18.20;94.40;;;;;;6069844;23;19901;-78
2023/10/27 02:32:44;;;;;;;;;;;18.20;94.50;;;;;;6068982;23;19981;-78
2023/10/27 02:35:09;;;;;;;;;;;18.20;94.40;;;;;;6068836;23;19909;-78
2023/10/27 02:37:35;;;;;;;;;;;18.30;94.50;;;;;;6069094;23;19909;-78
2023/10/27 02:40:00;;;;;;;;;;;18.20;94.50;;;;;;6068987;23;19901;-78
2023/10/27 02:42:25;;;;;;;;;;;18.20;94.50;;;;;;6069070;23;19908;-77
2023/10/27 02:44:51;;;;;;;;;;;18.20;94.90;;;;;;6068924;23;20229;-78
2023/10/27 02:47:16;;;;;;;;;;;18.20;94.50;;;;;;6068786;23;19901;-77
2023/10/27 02:49:42;;;;;;;;;;;18.20;94.80;;;;;;6068799;23;20370;-77
2023/10/27 02:52:08;;;;;;;;;;;18.20;94.60;;;;;;6068836;23;19901;-77
2023/10/27 02:54:33;;;;;;;;;;;18.20;94.40;;;;;;6069277;23;19917;-77
2023/10/27 02:56:59;;;;;;;;;;;18.20;94.60;;;;;;6069250;23;19905;-77
2023/10/27 02:59:24;;;;;;;;;;;18.20;94.50;;;;;;6068728;23;19905;-77
2023/10/27 03:01:52;;;;;;;;;;;18.20;94.40;;;;;;6068532;23;19928;-77
2023/10/27 03:04:19;;;;;;;;;;;18.10;94.20;;;;;;6068679;23;19910;-78
2023/10/27 03:06:44;;;;;;;;;;;18.20;94.50;;;;;;6068758;23;19908;-78
2023/10/27 03:09:10;;;;;;;;;;;18.10;94.60;;;;;;6068669;23;19976;-77
2023/10/27 03:11:35;;;;;;;;;;;18.20;94.50;;;;;;6068684;23;20286;-77
2023/10/27 03:14:01;;;;;;;;;;;18.20;94.50;;;;;;6068556;23;20211;-77
2023/10/27 03:16:26;;;;;;;;;;;18.10;94.40;;;;;;6068574;23;19902;-78
2023/10/27 03:18:54;;;;;;;;;;;18.20;94.80;;;;;;6068642;23;20275;-77
2023/10/27 03:21:19;;;;;;;;;;;18.10;94.50;;;;;;6068576;23;19901;-77
2023/10/27 03:23:45;;;;;;;;;;;18.20;94.60;;;;;;6068539;23;20031;-79
2023/10/27 03:26:10;;;;;;;;;;;18.10;94.60;;;;;;6068951;23;19902;-79
2023/10/27 03:28:36;;;;;;;;;;;18.20;94.70;;;;;;6068096;23;20294;-78
2023/10/27 03:31:01;;;;;;;;;;;18.10;94.60;;;;;;6068408;23;19909;-78
2023/10/27 03:33:27;;;;;;;;;;;18.20;94.80;;;;;;6068909;23;19901;-78
2023/10/27 03:35:52;;;;;;;;;;;18.20;94.80;;;;;;6068319;23;19910;-79
2023/10/27 03:38:18;;;;;;;;;;;18.20;94.80;;;;;;6068453;23;19902;-73
2023/10/27 03:40:44;;;;;;;;;;;18.20;94.90;;;;;;6068325;23;19909;-73
2023/10/27 03:43:10;;;;;;;;;;;18.30;94.80;;;;;;6068743;23;19909;-73
2023/10/27 03:45:36;;;;;;;;;;;18.10;94.90;;;;;;6068231;23;19901;-73
2023/10/27 03:48:01;;;;;;;;;;;18.10;94.60;;;;;;6068244;23;19912;-73
2023/10/27 03:50:27;;;;;;;;;;;18.10;94.80;;;;;;6068128;23;19901;-73
2023/10/27 03:52:53;;;;;;;;;;;18.20;95.00;;;;;;6068218;23;19901;-73
2023/10/27 03:55:18;;;;;;;;;;;18.20;94.90;;;;;;6068795;23;19909;-78
2023/10/27 03:57:44;;;;;;;;;;;18.20;94.80;;;;;;6068928;23;20270;-78
2023/10/27 04:00:10;;;;;;;;;;;18.20;94.80;;;;;;6068809;23;19901;-78
2023/10/27 04:02:36;;;;;;;;;;;18.10;94.60;;;;;;6068350;23;19960;-78
2023/10/27 04:05:05;;;;;;;;;;;18.20;94.80;;;;;;6068868;23;20285;-78
2023/10/27 04:07:31;;;;;;;;;;;18.00;93.30;;;;;;6068630;23;19921;-78
2023/10/27 04:09:56;;;;;;;;;;;18.20;95.00;;;;;;6068080;23;20281;-78
2023/10/27 04:12:22;;;;;;;;;;;18.20;94.90;;;;;;6068029;23;19901;-78
2023/10/27 04:14:48;;;;;;;;;;;18.10;94.90;;;;;;6067881;23;19909;-77
2023/10/27 04:17:13;;;;;;;;;;;18.20;94.90;;;;;;6068037;23;19901;-78
2023/10/27 04:19:39;;;;;;;;;;;18.20;94.90;;;;;;6068543;23;19925;-78
2023/10/27 04:22:08;;;;;;;;;;;18.30;94.90;;;;;;6068159;23;19905;-78
2023/10/27 04:24:34;;;;;;;;;;;18.00;92.20;;;;;;6067916;23;19905;-73
2023/10/27 04:26:59;;;;;;;;;;;18.20;94.80;;;;;;6068031;23;19905;-73
2023/10/27 04:29:25;;;;;;;;;;;18.20;94.70;;;;;;6067927;23;19984;-73
2023/10/27 04:31:51;;;;;;;;;;;18.20;94.70;;;;;;6067905;23;19939;-72
2023/10/27 04:34:16;;;;;;;;;;;18.30;94.90;;;;;;6068524;23;20344;-78
2023/10/27 04:36:43;;;;;;;;;;;18.20;94.80;;;;;;6067959;23;19905;-78
2023/10/27 04:39:09;;;;;;;;;;;18.20;94.70;;;;;;6067920;23;19905;-78
2023/10/27 04:41:34;;;;;;;;;;;18.20;94.70;;;;;;6067781;23;20032;-78
2023/10/27 04:44:00;;;;;;;;;;;18.10;94.60;;;;;;6067774;23;20286;-78
2023/10/27 04:46:26;;;;;;;;;;;18.10;94.70;;;;;;6067686;23;19912;-77
2023/10/27 04:48:52;;;;;;;;;;;18.20;94.50;;;;;;6068259;23;19909;-78
2023/10/27 04:51:17;;;;;;;;;;;18.20;94.70;;;;;;6068395;23;20198;-73
2023/10/27 04:53:43;;;;;;;;;;;18.20;94.70;;;;;;6067612;23;19937;-73
2023/10/27 04:56:08;;;;;;;;;;;18.20;94.80;;;;;;6067508;23;19910;-73
2023/10/27 04:58:34;;;;;;;;;;;18.20;94.70;;;;;;6067535;23;20289;-73
2023/10/27 05:00:59;;;;;;;;;;;18.00;93.10;;;;;;6067486;23;19978;-74
2023/10/27 05:03:25;;;;;;;;;;;18.20;94.80;;;;;;6067468;23;19953;-77
2023/10/27 05:05:51;;;;;;;;;;;18.30;94.80;;;;;;6067525;23;19980;-77
2023/10/27 05:08:16;;;;;;;;;;;18.20;94.70;;;;;;6067598;23;19973;-78
2023/10/27 05:10:42;;;;;;;;;;;18.20;94.70;;;;;;6067353;23;19909;-78
2023/10/27 05:13:08;;;;;;;;;;;18.20;94.80;;;;;;6067667;23;20293;-78
2023/10/27 05:15:33;;;;;;;;;;;18.20;94.80;;;;;;6076995;23;19966;-78
2023/10/27 05:18:04;;;;;;;;;;;18.20;94.80;;;;;;6067483;23;19981;-78
2023/10/27 05:20:37;;;;;;;;;;;18.20;94.80;;;;;;6077655;23;19957;-73
2023/10/27 05:23:02;;;;;;;;;;;18.20;92.50;;;;;;6077035;23;19909;-73
2023/10/27 05:25:28;;;;;;;;;;;18.20;94.80;;;;;;6077112;23;20230;-73
2023/10/27 05:27:53;;;;;;;;;;;18.30;94.80;;;;;;6077001;23;19908;-73
2023/10/27 05:30:19;;;;;;;;;;;18.30;94.80;;;;;;6077153;23;20369;-73
2023/10/27 05:32:44;;;;;;;;;;;18.20;94.90;;;;;;6076983;23;20345;-78
2023/10/27 05:35:10;;;;;;;;;;;18.20;94.80;;;;;;6067433;23;19994;-78
2023/10/27 05:37:36;;;;;;;;;;;18.30;94.90;;;;;;6067492;23;20296;-78
2023/10/27 05:40:02;;;;;;;;;;;18.20;94.80;;;;;;6067341;23;19980;-78
2023/10/27 05:42:29;;;;;;;;;;;18.30;94.50;;;;;;6067711;23;19931;-77
2023/10/27 05:44:55;;;;;;;;;;;18.20;94.80;;;;;;6067241;23;20345;-78
2023/10/27 05:47:21;;;;;;;;;;;18.20;94.80;;;;;;6067312;23;19902;-78
2023/10/27 05:49:46;;;;;;;;;;;18.20;94.80;;;;;;6067664;23;19902;-78
2023/10/27 05:52:12;;;;;;;;;;;18.30;94.80;;;;;;6067626;23;19906;-78
2023/10/27 05:54:37;;;;;;;;;;;18.30;94.80;;;;;;6069038;23;19916;-78
2023/10/27 05:57:03;;;;;;;;;;;18.30;94.60;;;;;;6069643;23;20265;-77
2023/10/27 05:59:29;;;;;;;;;;;18.20;94.60;;;;;;6069193;23;19908;-78
2023/10/27 06:01:54;;;;;;;;;;;18.30;94.60;;;;;;6068765;23;19906;-78
2023/10/27 06:04:21;;;;;;;;;;;18.60;94.80;;;;;;6069086;23;19902;-77
2023/10/27 06:06:47;;;;;;;;;;;18.30;94.90;;;;;;6069542;23;19905;-80
2023/10/27 06:09:12;;;;;;;;;;;18.30;94.70;;;;;;6069087;23;19901;-76
2023/10/27 06:11:38;;;;;;;;;;;18.30;94.80;;;;;;6075935;23;19931;-77
2023/10/27 06:14:03;;;;;;;;;;;18.20;94.70;;;;;;6043545;23;20337;-79
2023/10/27 06:16:30;;;;;;;;;;;18.30;94.60;;;;;;6070800;23;19949;-78
2023/10/27 06:18:55;;;;;;;;;;;18.30;94.60;;;;;;6069006;23;19905;-78
2023/10/27 06:21:21;;;;;;;;;;;18.20;94.60;;;;;;6069014;23;19908;-81
2023/10/27 06:23:46;;;;;;;;;;;18.40;94.80;;;;;;6071382;23;19902;-80
2023/10/27 06:26:12;;;;;;;;;;;18.40;94.80;;;;;;6069734;23;19902;-80
2023/10/27 06:28:37;;;;;;;;;;;18.30;94.80;;;;;;6069076;23;19908;-82
2023/10/27 06:31:03;;;;;;;;;;;18.30;94.60;;;;;;6068883;23;20314;-80
2023/10/27 06:33:32;;;;;;;;;;;18.30;94.40;;;;;;6069174;23;19957;-81
2023/10/27 06:35:58;;;;;;;;;;;18.30;94.80;;;;;;6069516;23;19992;-73
2023/10/27 06:38:23;;;;;;;;;;;18.30;94.80;;;;;;6068893;23;20314;-72
2023/10/27 06:40:49;;;;;;;;;;;18.30;94.70;;;;;;6068696;23;19909;-73
2023/10/27 06:43:14;;;;;;;;;;;18.40;94.60;;;;;;6068568;23;19902;-74
2023/10/27 06:45:40;;;;;;;;;;;18.30;94.80;;;;;;6043474;23;20318;-71
2023/10/27 06:48:06;;;;;;;;;;;18.30;94.80;;;;;;6069313;23;19902;-76
2023/10/27 06:50:32;;;;;;;;;;;18.30;94.70;;;;;;6068651;23;19949;-76
2023/10/27 06:52:57;;;;;;;;;;;18.60;94.90;;;;;;6068575;23;19965;-76
2023/10/27 06:55:23;;;;;;;;;;;18.30;94.70;;;;;;6069140;23;19916;-76
2023/10/27 06:57:49;;;;;;;;;;;;;;;;;;6068385;23;19905;-77
2023/10/27 07:00:15;;;;;;;;;;;18.30;92.60;;;;;;6068514;23;19965;-76
2023/10/27 07:02:41;;;;;;;;;;;18.30;94.50;;;;;;6069038;23;19920;-76
2023/10/27 07:05:08;;;;;;;;;;;18.20;94.60;;;;;;6068532;23;20313;-75
2023/10/27 07:07:34;;;;;;;;;;;18.30;94.20;;;;;;6068447;23;19972;-76
2023/10/27 07:09:59;;;;;;;;;;;18.30;94.80;;;;;;6068353;23;19905;-76
2023/10/27 07:12:25;;;;;;;;;;;18.30;94.60;;;;;;6068367;23;19980;-76
2023/10/27 07:14:50;;;;;;;;;;;18.30;94.80;;;;;;6068101;23;19916;-76
2023/10/27 07:17:16;;;;;;;;;;;18.20;94.60;;;;;;6068089;23;19908;-77
2023/10/27 07:19:41;;;;;;;;;;;18.20;94.70;;;;;;6068066;23;19901;-77
2023/10/27 07:22:07;;;;;;;;;;;18.30;94.80;;;;;;6068084;23;20372;-77
2023/10/27 07:24:32;;;;;;;;;;;18.30;94.70;;;;;;6068113;23;19912;-77
2023/10/27 07:26:58;;;;;;;;;;;18.30;94.60;;;;;;6068000;23;20357;-77
2023/10/27 07:29:24;;;;;;;;;;;18.30;94.70;;;;;;6068027;23;19901;-76
2023/10/27 07:31:49;;;;;;;;;;;18.30;94.80;;;;;;6068034;23;19901;-77
2023/10/27 07:34:14;;;;;;;;;;;18.20;94.70;;;;;;6067993;23;19910;-78
2023/10/27 07:36:40;;;;;;;;;;;18.40;94.60;;;;;;6067958;23;20054;-77
2023/10/27 07:39:06;;;;;;;;;;;18.30;94.80;;;;;;6068315;23;19909;-77
2023/10/27 07:41:34;;;;;;;;;;;18.30;94.80;;;;;;6068301;23;20274;-77
2023/10/27 07:44:00;;;;;;;;;;;18.50;94.80;;;;;;6067215;23;19910;-78
2023/10/27 07:46:26;;;;;;;;;;;18.30;94.80;;;;;;6067120;23;20282;-77
2023/10/27 07:48:52;;;;;;;;;;;18.40;94.80;;;;;;6066905;23;19902;-76
2023/10/27 07:51:18;;;;;;;;;;;18.30;94.70;;;;;;6067601;23;19901;-76
2023/10/27 07:53:44;;;;;;;;;;;18.30;94.80;;;;;;6067738;23;20241;-72
2023/10/27 07:56:10;;;;;;;;;;;18.30;94.70;;;;;;6067582;23;19909;-71
2023/10/27 07:58:36;;;;;;;;;;;18.30;94.70;;;;;;6067681;23;19901;-72
2023/10/27 08:01:05;;;;;;;;;;;18.30;94.70;;;;;;6068441;23;19928;-72
2023/10/27 08:03:32;;;;;;;;;;;18.30;94.60;;;;;;6067789;23;19948;-73
2023/10/27 08:05:58;;;;;;;;;;;18.30;94.90;;;;;;6068158;23;20381;-72
2023/10/27 08:08:23;;;;;;;;;;;18.30;94.80;;;;;;6067791;23;19933;-72
2023/10/27 08:10:49;;;;;;;;;;;18.30;94.70;;;;;;6068481;23;19906;-77
2023/10/27 08:13:20;;;;;;;;;;;18.30;94.70;;;;;;6067985;23;19908;-77
2023/10/27 08:15:46;;;;;;;;;;;18.30;92.90;;;;;;6077133;23;19913;-76
2023/10/27 08:18:13;;;;;;;;;;;18.40;94.70;;;;;;6068434;23;20033;-77
2023/10/27 08:20:38;;;;;;;;;;;18.40;94.80;;;;;;6067736;23;20245;-76
2023/10/27 08:23:04;;;;;;;;;;;18.40;94.70;;;;;;6067736;23;19901;-77
2023/10/27 08:25:29;;;;;;;;;;;18.40;94.80;;;;;;6067423;23;19902;-77
2023/10/27 08:27:55;;;;;;;;;;;18.40;94.80;;;;;;6067604;23;19906;-78
2023/10/27 08:30:20;;;;;;;;;;;18.30;94.50;;;;;;6067786;23;20322;-77
2023/10/27 08:32:46;;;;;;;;;;;18.30;94.80;;;;;;6067538;23;19947;-77
2023/10/27 08:35:11;;;;;;;;;;;18.30;94.70;;;;;;6072016;23;19910;-78
2023/10/27 08:37:37;;;;;;;;;;;18.40;94.80;;;;;;6067424;23;19989;-78
2023/10/27 08:40:03;;;;;;;;;;;18.30;94.80;;;;;;6067818;23;19925;-77
2023/10/27 08:42:32;;;;;;;;;;;18.40;94.30;;;;;;6067659;23;19999;-86
2023/10/27 08:44:58;;;;;;;;;;;18.40;92.60;;;;;;6067699;23;19902;-78
2023/10/27 08:47:25;;;;;;;;;;;18.40;94.90;;;;;;6067560;23;19949;-71
2023/10/27 08:49:51;;;;;;;;;;;18.40;94.90;;;;;;6067993;23;20285;-72
2023/10/27 08:52:17;;;;;;;;;;;18.50;94.90;;;;;;6068109;23;19936;-72
2023/10/27 08:54:44;;;;;;;;;;;18.20;94.90;;;;;;6067343;23;19996;-71
2023/10/27 08:57:10;;;;;;;;;;;18.40;94.80;;;;;;6067939;23;19901;-71
2023/10/27 08:59:36;;;;;;;;;;;18.40;95.10;;;;;;6067344;23;19986;-70
2023/10/27 09:02:02;;;;;;;;;;;18.40;94.70;;;;;;6067520;23;20271;-71
2023/10/27 09:04:28;;;;;;;;;;;18.30;94.80;;;;;;6067809;23;19925;-70
2023/10/27 09:06:53;;;;;;;;;;;18.40;94.80;;;;;;6067250;23;19909;-71
2023/10/27 09:09:19;;;;;;;;;;;18.40;94.80;;;;;;6067279;23;20274;-71
2023/10/27 09:11:47;;;;;;;;;;;18.40;95.00;;;;;;6067773;23;19968;-72
2023/10/27 09:14:30;;;;;;;;;;;18.40;94.90;;;;;;6067674;23;19901;-73
2023/10/27 09:17:05;;;;;;;;;;;18.40;92.70;;;;;;6077094;23;19951;-71
2023/10/27 09:19:32;;;;;;;;;;;18.40;92.60;;;;;;6076871;23;20322;-72
2023/10/27 09:21:57;;;;;;;;;;;18.40;94.90;;;;;;6076713;23;19901;-72
2023/10/27 09:24:27;;;;;;;;;;;18.40;94.80;;;;;;6076776;23;19908;-72
2023/10/27 09:26:53;;;;;;;;;;;18.50;92.50;;;;;;6076349;23;19901;-72
2023/10/27 09:29:19;;;;;;;;;;;18.40;94.50;;;;;;6076813;23;19929;-72
2023/10/27 09:31:45;;;;;;;;;;;18.30;94.90;;;;;;6067504;23;19981;-73
2023/10/27 09:34:17;;;;;;;;;;;18.50;94.80;;;;;;6067611;23;19907;-72
2023/10/27 09:36:44;;;;;;;;;;;18.50;92.60;;;;;;6067119;23;19912;-72
2023/10/27 09:39:10;;;;;;;;;;;18.40;94.90;;;;;;6067731;23;19909;-72
2023/10/27 09:41:36;;;;;;;;;;;18.40;94.80;;;;;;6067119;23;19905;-71
2023/10/27 09:44:02;;;;;;;;;;;18.50;94.90;;;;;;6067173;23;19902;-81
2023/10/27 09:46:28;;;;;;;;;;;18.40;94.40;;;;;;6067817;23;20259;-82
2023/10/27 09:48:58;;;;;;;;;;;18.50;94.90;;;;;;6067229;23;19933;-82
2023/10/27 09:51:25;;;;;;;;;;;18.40;94.90;;;;;;6067273;23;19902;-81
2023/10/27 09:53:51;;;;;;;;;;;18.40;94.90;;;;;;6067074;23;19902;-81
2023/10/27 09:56:17;;;;;;;;;;;18.40;94.80;;;;;;6067792;23;19910;-81
2023/10/27 09:58:43;;;;;;;;;;;18.50;95.00;;;;;;6067294;23;20369;-81
2023/10/27 10:01:09;;;;;;;;;;;18.50;94.80;;;;;;6067510;23;19960;-71
2023/10/27 10:03:40;;;;;;;;;;;18.50;94.80;;;;;;6066665;23;19973;-71
2023/10/27 10:06:12;;;;;;;;;;;18.50;94.90;;;;;;6066817;23;19905;-71
2023/10/27 10:08:38;;;;;;;;;;;18.50;92.60;;;;;;6066855;23;19902;-71
2023/10/27 10:11:14;;;;;;;;;;;18.40;94.70;;;;;;6066964;23;19901;-71
2023/10/27 10:13:40;;;;;;;;;;;18.50;92.60;;;;;;6066825;23;19902;-70
2023/10/27 10:16:06;;;;;;;;;;;18.40;94.90;;;;;;6066980;23;19921;-71
2023/10/27 10:18:32;;;;;;;;;;;;;;;;;;6067592;23;19937;-72
2023/10/27 10:20:59;;;;;;;;;;;18.50;94.80;;;;;;6067402;23;19917;-71
2023/10/27 10:23:37;;;;;;;;;;;18.50;94.90;;;;;;6066834;23;19929;-72
2023/10/27 10:26:02;;;;;;;;;;;18.50;92.70;;;;;;6066656;23;19902;-72
2023/10/27 10:28:34;;;;;;;;;;;18.50;95.10;;;;;;6066703;23;19992;-71
2023/10/27 10:31:06;;;;;;;;;;;18.50;95.00;;;;;;6067295;23;19937;-79
2023/10/27 10:33:31;;;;;;;;;;;18.50;92.70;;;;;;6066796;23;20317;-77
2023/10/27 10:36:14;;;;;;;;;;;18.50;94.70;;;;;;6066656;23;19961;-84
2023/10/27 10:39:03;;;;;;;;;;;18.30;92.60;;;;;;6067451;23;19937;-80
2023/10/27 10:41:41;;;;;;;;;;;18.50;95.00;;;;;;6078546;23;19901;-72
2023/10/27 10:44:26;;;;;;;;;;;18.50;92.90;;;;;;6078073;23;19901;-72
2023/10/27 10:46:51;;;;;;;;;;;18.60;92.70;;;;;;6078134;23;19909;-72
2023/10/27 10:49:27;;;;;;;;;;;18.50;94.90;;;;;;6078061;23;19901;-72
2023/10/27 10:51:55;;;;;;;;;;;18.50;92.60;;;;;;6068782;23;19929;-73
2023/10/27 10:54:25;;;;;;;;;;;18.60;92.80;;;;;;6068107;23;20007;-73
2023/10/27 10:56:57;;;;;;;;;;;18.60;92.80;;;;;;6068721;23;20130;-73
2023/10/27 10:59:23;;;;;;;;;;;18.60;94.90;;;;;;6068834;23;20349;-73
2023/10/27 11:01:53;;;;;;;;;;;18.50;94.70;;;;;;6067782;23;19902;-73
2023/10/27 11:04:26;;;;;;;;;;;18.60;95.20;;;;;;6068176;23;20405;-73
2023/10/27 11:06:56;;;;;;;;;;;18.70;95.00;;;;;;6052553;23;19901;-74
2023/10/27 11:09:23;;;;;;;;;;;18.40;94.70;;;;;;6068187;23;19908;-79
2023/10/27 11:11:49;;;;;;;;;;;18.50;95.00;;;;;;6068568;23;19909;-79
2023/10/27 11:14:15;;;;;;;;;;;18.60;94.90;;;;;;6068616;23;19905;-77
2023/10/27 11:16:41;;;;;;;;;;;18.70;95.10;;;;;;6068848;23;19902;-80
2023/10/27 11:19:14;;;;;;;;;;;18.60;95.10;;;;;;6068251;23;19984;-79
2023/10/27 11:21:40;;;;;;;;;;;18.50;95.10;;;;;;6077677;23;19902;-80
2023/10/27 11:24:06;;;;;;;;;;;18.70;95.00;;;;;;6068338;23;19909;-79
2023/10/27 11:26:37;;;;;;;;;;;18.60;94.90;;;;;;6068176;23;19902;-79
2023/10/27 11:29:06;;;;;;;;;;;18.60;95.00;;;;;;6068127;23;19901;-73
2023/10/27 11:31:32;;;;;;;;;;;18.60;95.00;;;;;;6067899;23;19901;-72
2023/10/27 11:33:58;;;;;;;;;;;18.60;94.80;;;;;;6067850;23;20344;-71
2023/10/27 11:36:31;;;;;;;;;;;18.50;95.00;;;;;;6068191;23;19965;-73
2023/10/27 11:39:17;;;;;;;;;;;18.50;92.70;;;;;;6077672;23;19980;-73
2023/10/27 11:41:44;;;;;;;;;;;18.60;95.00;;;;;;6067546;23;19909;-73
2023/10/27 11:44:10;;;;;;;;;;;18.60;95.00;;;;;;6067904;23;19909;-73
2023/10/27 11:46:36;;;;;;;;;;;18.50;95.20;;;;;;6068380;23;19905;-73
2023/10/27 11:49:02;;;;;;;;;;;18.50;94.70;;;;;;6068492;23;19949;-72
2023/10/27 11:51:29;;;;;;;;;;;18.60;94.90;;;;;;6067596;23;20238;-72
2023/10/27 11:53:55;;;;;;;;;;;18.60;94.90;;;;;;6067769;23;20326;-73
2023/10/27 11:56:23;;;;;;;;;;;;;;;;;;6067761;23;19916;-73
2023/10/27 11:58:49;;;;;;;;;;;18.60;94.10;;;;;;6068369;23;19969;-73
2023/10/27 12:01:15;;;;;;;;;;;18.50;94.70;;;;;;6068265;23;19906;-73
2023/10/27 12:03:41;;;;;;;;;;;18.60;94.90;;;;;;6067541;23;20274;-73
2023/10/27 12:06:07;;;;;;;;;;;18.60;94.90;;;;;;6067971;23;19901;-80
2023/10/27 12:08:32;;;;;;;;;;;18.20;94.80;;;;;;6067630;23;19901;-80
2023/10/27 12:10:59;;;;;;;;;;;18.60;94.90;;;;;;6067820;23;19988;-80
2023/10/27 12:13:25;;;;;;;;;;;18.50;94.70;;;;;;6068587;23;19973;-86
2023/10/27 12:15:51;;;;;;;;;;;18.60;94.90;;;;;;6068352;23;19916;-80
2023/10/27 12:18:19;;;;;;;;;;;18.50;94.70;;;;;;6068241;23;20424;-80
2023/10/27 12:20:45;;;;;;;;;;;18.50;94.60;;;;;;6067790;23;19934;-80
2023/10/27 12:23:11;;;;;;;;;;;18.50;94.80;;;;;;6067972;23;19902;-72
2023/10/27 12:25:38;;;;;;;;;;;18.60;94.90;;;;;;6068249;23;19901;-73
2023/10/27 12:28:06;;;;;;;;;;;;;;;;;;6068124;23;19972;-73
2023/10/27 12:30:33;;;;;;;;;;;18.50;92.90;;;;;;6077371;23;19965;-73
2023/10/27 12:32:59;;;;;;;;;;;18.60;95.10;;;;;;6067659;23;19902;-72
2023/10/27 12:35:25;;;;;;;;;;;18.60;94.80;;;;;;6067695;23;19913;-73
2023/10/27 12:37:53;;;;;;;;;;;18.50;94.50;;;;;;6067491;23;20326;-72
2023/10/27 12:40:25;;;;;;;;;;;18.50;94.70;;;;;;6067763;23;19902;-72
2023/10/27 12:42:53;;;;;;;;;;;18.60;92.50;;;;;;6067490;23;19947;-79
2023/10/27 12:45:19;;;;;;;;;;;18.60;92.70;;;;;;6067438;23;20309;-79
2023/10/27 12:47:45;;;;;;;;;;;18.60;94.70;;;;;;6067233;23;19956;-78
2023/10/27 12:50:11;;;;;;;;;;;18.60;95.00;;;;;;6067390;23;19902;-78
2023/10/27 12:52:38;;;;;;;;;;;18.60;94.80;;;;;;6067373;23;20326;-79
2023/10/27 12:55:05;;;;;;;;;;;18.50;94.70;;;;;;6067716;23;19992;-79
2023/10/27 12:57:30;;;;;;;;;;;18.60;94.40;;;;;;6067317;23;19901;-78
2023/10/27 12:59:56;;;;;;;;;;;18.60;94.80;;;;;;6067220;23;19972;-78
2023/10/27 13:02:23;;;;;;;;;;;18.50;94.60;;;;;;6066657;23;19920;-79
2023/10/27 13:04:52;;;;;;;;;;;18.50;94.60;;;;;;6067607;23;19901;-79
2023/10/27 13:07:18;;;;;;;;;;;18.60;94.80;;;;;;6067280;23;19908;-79
2023/10/27 13:09:44;;;;;;;;;;;18.60;94.80;;;;;;6067855;23;19902;-78
2023/10/27 13:12:12;;;;;;;;;;;18.60;94.80;;;;;;6067786;23;20179;-79
2023/10/27 13:14:40;;;;;;;;;;;18.60;93.00;;;;;;6067245;23;19909;-82
2023/10/27 13:17:06;;;;;;;;;;;18.50;94.50;;;;;;6067569;23;19913;-84
2023/10/27 13:19:33;;;;;;;;;;;18.60;94.80;;;;;;6067366;23;20310;-72
2023/10/27 13:22:00;;;;;;;;;;;18.70;94.70;;;;;;6067430;23;20074;-72
2023/10/27 13:24:26;;;;;;;;;;;18.70;94.80;;;;;;6067527;23;19909;-73
2023/10/27 13:26:52;;;;;;;;;;;18.60;94.70;;;;;;6066995;23;19949;-73
2023/10/27 13:29:18;;;;;;;;;;;18.70;94.60;;;;;;6066987;23;19910;-73
2023/10/27 13:31:44;;;;;;;;;;;18.70;94.70;;;;;;6067053;23;19905;-73
2023/10/27 13:34:11;;;;;;;;;;;18.60;94.70;;;;;;6066918;23;19902;-71
2023/10/27 13:36:37;;;;;;;;;;;18.70;94.60;;;;;;6067441;23;19929;-81
2023/10/27 13:39:02;;;;;;;;;;;18.80;94.30;;;;;;6066860;23;20234;-81
2023/10/27 13:41:34;;;;;;;;;;;19.00;94.10;;;;;;6067415;23;19925;-81
2023/10/27 13:44:01;;;;;;;;;;;19.00;93.90;;;;;;6076441;23;19956;-81
2023/10/27 13:46:27;;;;;;;;;;;19.00;93.90;;;;;;6067202;23;19901;-81
2023/10/27 13:48:53;;;;;;;;;;;19.10;93.80;;;;;;6076488;23;20347;-81
2023/10/27 13:51:19;;;;;;;;;;;19.10;94.00;;;;;;6067159;23;19902;-81
2023/10/27 13:53:45;;;;;;;;;;;19.10;94.00;;;;;;6067113;23;19902;-72
2023/10/27 13:56:13;;;;;;;;;;;19.00;94.10;;;;;;6066817;23;19909;-80
2023/10/27 13:58:40;;;;;;;;;;;19.10;92.50;;;;;;6066879;23;20210;-80
2023/10/27 14:01:05;;;;;;;;;;;19.00;94.10;;;;;;6066748;23;20391;-80
2023/10/27 14:03:31;;;;;;;;;;;19.00;94.20;;;;;;6066655;23;19914;-80
2023/10/27 14:05:56;;;;;;;;;;;19.00;94.20;;;;;;6066744;23;20295;-81
2023/10/27 14:08:22;;;;;;;;;;;18.90;94.20;;;;;;6066835;23;19902;-81
2023/10/27 14:10:47;;;;;;;;;;;18.90;94.40;;;;;;6066719;23;20215;-80
2023/10/27 14:13:13;;;;;;;;;;;18.80;94.20;;;;;;6067370;23;19949;-80
2023/10/27 14:15:39;;;;;;;;;;;18.90;94.50;;;;;;6069277;23;19909;-81